Time;durP1;ratioP1;P1;durP2;ratioP2;P2;SDS_P1;SDS_P2;PMS_P1;PMS_P2;Temp;Humidity;BMP_temperature;BMP_pressure;BME280_temperature;BME280_humidity;BME280_pressure;Samples;Min_cycle;Max_cycle;Signal;HPM_P1;HPM_P2
2024/01/08 00:00:05;;;;;;;33.83;31.75;;;;;;;3.40;63.04;102897.44;5013121;28;20532;-76
2024/01/08 00:02:30;;;;;;;33.03;30.98;;;;;;;3.40;63.32;102907.25;5033946;28;20044;-75
2024/01/08 00:04:56;;;;;;;32.20;30.23;;;;;;;3.38;62.92;102910.09;5013998;28;20374;-75
2024/01/08 00:07:21;;;;;;;29.40;27.67;;;;;;;3.35;63.23;102913.06;5029189;28;20470;-75
2024/01/08 00:09:47;;;;;;;29.92;28.20;;;;;;;3.35;63.45;102906.84;5024557;28;20025;-76
2024/01/08 00:12:12;;;;;;;30.65;28.95;;;;;;;3.34;63.10;102914.00;5042432;28;20508;-74
2024/01/08 00:14:39;;;;;;;31.65;29.95;;;;;;;3.32;62.74;102918.66;5018444;28;20038;-76
2024/01/08 00:17:05;;;;;;;34.17;32.17;;;;;;;3.33;62.98;102919.53;5032413;28;20040;-75
2024/01/08 00:19:30;;;;;;;32.03;30.25;;;;;;;3.33;63.00;102915.00;5024516;28;20037;-75
2024/01/08 00:21:56;;;;;;;31.60;29.80;;;;;;;3.33;63.27;102924.88;5035848;28;20056;-76
2024/01/08 00:24:21;;;;;;;28.83;27.23;;;;;;;3.31;62.72;102926.81;5033545;28;20061;-75
2024/01/08 00:26:47;;;;;;;30.35;28.52;;;;;;;3.24;62.52;102929.19;5031287;28;20054;-75
2024/01/08 00:29:12;;;;;;;32.40;30.52;;;;;;;3.19;62.04;102926.94;5027099;28;20469;-74
2024/01/08 00:31:37;;;;;;;30.85;29.08;;;;;;;3.16;61.81;102942.41;5025240;28;20025;-74
2024/01/08 00:34:03;;;;;;;30.65;28.65;;;;;;;3.11;62.10;102936.66;5029603;28;20045;-76
2024/01/08 00:36:28;;;;;;;27.15;25.75;;;;;;;3.08;62.14;102932.44;5012947;28;20133;-76
2024/01/08 00:38:54;;;;;;;32.55;30.85;;;;;;;3.10;62.75;102935.81;5031228;28;20359;-75
2024/01/08 00:41:20;;;;;;;28.77;27.25;;;;;;;3.13;63.04;102934.69;5012543;28;20108;-79
2024/01/08 00:43:46;;;;;;;27.45;25.70;;;;;;;3.14;62.77;102936.38;5015043;28;20030;-76
2024/01/08 00:46:12;;;;;;;32.10;30.15;;;;;;;3.14;62.31;102933.69;5011728;28;20022;-75
2024/01/08 00:48:37;;;;;;;29.85;28.20;;;;;;;3.12;63.09;102936.50;4996199;28;20041;-75
2024/01/08 00:51:03;;;;;;;30.23;28.42;;;;;;;3.11;62.76;102936.66;5003188;28;20029;-75
2024/01/08 00:53:28;;;;;;;32.72;30.73;;;;;;;3.10;62.02;102929.59;5030550;28;20079;-75
2024/01/08 00:55:53;;;;;;;28.25;26.67;;;;;;;3.08;61.94;102934.28;5027054;28;20181;-74
2024/01/08 00:58:19;;;;;;;30.13;28.30;;;;;;;3.06;62.07;102928.22;4999176;28;20034;-76
2024/01/08 01:00:44;;;;;;;26.55;25.15;;;;;;;3.04;62.22;102936.34;5015109;28;20156;-76
2024/01/08 01:03:10;;;;;;;28.60;26.88;;;;;;;3.04;62.03;102926.50;5034409;28;20033;-76
2024/01/08 01:05:35;;;;;;;33.45;31.48;;;;;;;3.03;62.46;102935.53;5031142;28;20113;-76
2024/01/08 01:08:01;;;;;;;32.95;31.25;;;;;;;3.05;62.19;102935.41;5015207;28;20438;-76
2024/01/08 01:10:26;;;;;;;29.17;27.75;;;;;;;3.05;62.53;102924.72;5016808;28;20038;-76
2024/01/08 01:12:51;;;;;;;30.15;28.58;;;;;;;3.06;62.40;102929.06;5002778;28;20028;-75
2024/01/08 01:15:17;;;;;;;28.30;26.75;;;;;;;3.07;63.00;102927.22;5036553;28;20485;-75
2024/01/08 01:17:42;;;;;;;32.05;30.20;;;;;;;3.09;62.74;102931.44;5011650;28;20467;-75
2024/01/08 01:20:08;;;;;;;28.67;27.08;;;;;;;3.10;62.46;102934.94;5010709;28;20036;-76
2024/01/08 01:22:33;;;;;;;28.70;27.20;;;;;;;3.13;63.00;102935.53;5009754;28;20060;-75
2024/01/08 01:24:59;;;;;;;31.38;29.70;;;;;;;3.16;62.79;102937.09;5031636;28;20060;-75
2024/01/08 01:27:24;;;;;;;26.17;24.88;;;;;;;3.16;62.42;102929.06;5025118;28;20053;-74
2024/01/08 01:29:49;;;;;;;28.95;27.45;;;;;;;3.17;62.49;102931.59;5039259;28;20041;-76
2024/01/08 01:32:15;;;;;;;27.77;26.15;;;;;;;3.18;62.56;102932.44;5030609;28;20450;-75
2024/01/08 01:34:40;;;;;;;29.10;27.60;;;;;;;3.20;62.72;102931.31;5020795;28;20038;-75
2024/01/08 01:37:06;;;;;;;29.17;27.42;;;;;;;3.23;62.75;102927.53;5033828;28;20041;-75
2024/01/08 01:39:32;;;;;;;27.48;25.92;;;;;;;3.25;62.90;102939.75;5030218;28;20415;-75
2024/01/08 01:41:58;;;;;;;29.02;27.42;;;;;;;3.28;62.97;102932.47;5031724;28;20393;-75
2024/01/08 01:44:23;;;;;;;30.92;29.23;;;;;;;3.28;63.04;102933.28;5017518;28;20036;-75
2024/01/08 01:46:50;;;;;;;30.98;29.27;;;;;;;3.28;62.38;102940.47;5016478;28;20117;-75
2024/01/08 01:49:18;;;;;;;31.20;29.30;;;;;;;3.25;62.13;102938.88;5023947;28;20033;-76
2024/01/08 01:51:45;;;;;;;32.75;30.88;;;;;;;3.19;61.75;102940.31;5029502;28;20075;-74
2024/01/08 01:54:15;;;;;;;31.63;29.77;;;;;;;3.14;62.32;102939.88;5021336;28;20018;-75
2024/01/08 01:56:47;;;;;;;28.15;26.55;;;;;;;3.12;62.75;102939.16;5036137;28;20040;-75
2024/01/08 01:59:15;;;;;;;33.75;31.55;;;;;;;3.09;62.06;102933.28;5022021;28;20042;-77
2024/01/08 02:01:41;;;;;;;26.75;25.25;;;;;;;3.06;62.06;102931.72;5012429;28;20037;-75
2024/01/08 02:04:08;;;;;;;28.85;27.25;;;;;;;3.07;62.16;102938.75;5011329;28;20359;-75
2024/01/08 02:06:35;;;;;;;30.92;29.33;;;;;;;3.06;62.19;102936.22;5013265;28;20033;-76
2024/01/08 02:09:02;;;;;;;26.17;24.83;;;;;;;3.08;62.94;102940.44;5051969;28;20048;-76
2024/01/08 02:11:28;;;;;;;31.13;29.42;;;;;;;3.11;62.83;102940.16;5020888;28;20030;-76
2024/01/08 02:13:54;;;;;;;28.92;27.42;;;;;;;3.13;62.74;102937.38;5012335;28;20509;-76
2024/01/08 02:16:19;;;;;;;26.15;24.65;;;;;;;3.17;62.92;102938.75;5028255;28;20034;-75
2024/01/08 02:18:45;;;;;;;27.20;25.80;;;;;;;3.19;62.47;102942.97;5028758;28;20112;-75
2024/01/08 02:21:10;;;;;;;30.85;28.92;;;;;;;3.21;62.74;102942.84;5029905;28;20033;-75
2024/01/08 02:23:35;;;;;;;29.45;27.60;;;;;;;3.23;62.88;102944.41;5030776;28;20124;-75
2024/01/08 02:26:01;;;;;;;26.23;24.92;;;;;;;3.25;62.83;102939.75;5037535;28;20040;-75
2024/01/08 02:28:27;;;;;;;34.22;31.58;;;;;;;3.27;63.02;102944.09;5037922;28;20560;-75
2024/01/08 02:30:52;;;;;;;26.73;25.33;;;;;;;3.26;62.75;102943.28;5010888;28;20477;-75
2024/01/08 02:33:17;;;;;;;29.90;28.30;;;;;;;3.27;62.80;102947.63;5013623;28;20550;-75
2024/01/08 02:35:43;;;;;;;27.20;25.83;;;;;;;3.27;63.21;102949.44;5034699;28;20040;-76
2024/01/08 02:38:08;;;;;;;34.30;31.88;;;;;;;3.29;62.87;102950.16;5037423;28;20041;-75
2024/01/08 02:40:34;;;;;;;29.45;27.88;;;;;;;3.29;63.13;102950.16;5026822;28;20386;-76
2024/01/08 02:42:59;;;;;;;30.80;29.17;;;;;;;3.31;62.71;102956.22;5004414;28;20112;-76
2024/01/08 02:45:25;;;;;;;32.45;30.65;;;;;;;3.30;62.72;102955.38;5034518;28;20075;-75
2024/01/08 02:47:50;;;;;;;29.92;28.35;;;;;;;3.31;62.60;102954.38;5012811;28;20045;-74
2024/01/08 02:50:15;;;;;;;28.45;26.48;;;;;;;3.30;62.41;102959.84;5011482;28;20045;-75
2024/01/08 02:52:43;;;;;;;28.33;26.67;;;;;;;3.28;62.49;102959.16;5030517;28;20168;-75
2024/01/08 02:55:10;;;;;;;30.90;29.30;;;;;;;3.23;63.02;102956.91;5028898;28;20270;-75
2024/01/08 02:57:36;;;;;;;33.42;31.52;;;;;;;3.22;62.66;102960.53;5013079;28;20033;-78
2024/01/08 03:00:04;;;;;;;28.75;27.23;;;;;;;3.21;62.99;102964.22;5046169;28;20033;-75
2024/01/08 03:02:30;;;;;;;28.92;27.27;;;;;;;3.21;62.32;102967.72;5042695;28;20040;-75
2024/01/08 03:04:56;;;;;;;28.30;26.88;;;;;;;3.21;62.99;102964.22;5034004;28;20033;-75
2024/01/08 03:07:21;;;;;;;29.48;27.58;;;;;;;3.20;62.51;102963.38;5033918;28;20032;-77
2024/01/08 03:09:47;;;;;;;28.50;27.08;;;;;;;3.19;62.34;102967.00;5017310;28;20033;-75
2024/01/08 03:12:14;;;;;;;27.77;26.27;;;;;;;3.18;63.00;102959.16;5031643;28;20474;-75
2024/01/08 03:14:40;;;;;;;27.17;25.85;;;;;;;3.19;62.67;102971.50;5020375;28;20493;-76
2024/01/08 03:17:05;;;;;;;29.60;27.85;;;;;;;3.18;62.58;102976.00;5035119;28;20462;-75
2024/01/08 03:19:30;;;;;;;29.27;27.42;;;;;;;3.14;62.16;102979.09;5024451;28;20040;-75
2024/01/08 03:21:56;;;;;;;28.33;26.85;;;;;;;3.11;62.39;102979.38;5034817;28;20042;-75
2024/01/08 03:24:21;;;;;;;29.58;27.67;;;;;;;3.09;62.28;102974.16;5026006;28;20042;-74
2024/01/08 03:26:47;;;;;;;29.33;27.63;;;;;;;3.08;62.34;102974.31;5013626;28;20486;-75
2024/01/08 03:29:13;;;;;;;33.05;31.15;;;;;;;3.07;62.05;102980.63;5019550;28;20539;-76
2024/01/08 03:31:45;;;;;;;27.83;26.23;;;;;;;3.04;62.24;102979.91;5043301;28;20044;-75
2024/01/08 03:34:12;;;;;;;25.60;24.27;;;;;;;3.03;62.55;102969.41;5032971;28;20038;-76
2024/01/08 03:36:37;;;;;;;26.90;25.40;;;;;;;3.01;62.24;102977.53;5030177;28;20033;-75
2024/01/08 03:39:03;;;;;;;27.25;25.65;;;;;;;2.99;61.80;102971.47;5034820;28;20090;-75
2024/01/08 03:41:28;;;;;;;28.05;26.38;;;;;;;2.99;62.66;102981.31;5034049;28;20091;-75
2024/01/08 03:43:54;;;;;;;29.48;27.88;;;;;;;2.99;62.18;102976.81;5033244;28;20453;-75
2024/01/08 03:46:19;;;;;;;28.45;27.00;;;;;;;2.99;62.36;102981.31;5032190;28;20092;-75
2024/01/08 03:48:44;;;;;;;30.15;28.52;;;;;;;2.99;62.50;102973.31;5047538;28;20045;-75
2024/01/08 03:51:10;;;;;;;27.30;25.90;;;;;;;2.98;62.61;102980.47;5018049;28;20045;-76
2024/01/08 03:53:36;;;;;;;29.95;28.20;;;;;;;2.98;62.43;102988.50;5032212;28;20041;-75
2024/01/08 03:56:01;;;;;;;29.88;28.38;;;;;;;3.01;62.41;102985.53;5035785;28;20114;-75
2024/01/08 03:58:27;;;;;;;28.80;27.20;;;;;;;3.03;63.01;102982.75;5021106;28;20473;-76
2024/01/08 04:00:53;;;;;;;28.38;26.80;;;;;;;3.05;62.29;102980.78;5028561;28;20040;-74
2024/01/08 04:03:19;;;;;;;28.55;27.00;;;;;;;3.06;62.71;102978.94;5025692;28;20124;-76
2024/01/08 04:05:45;;;;;;;25.40;24.02;;;;;;;3.06;62.95;102979.78;5034469;28;20488;-74
2024/01/08 04:08:10;;;;;;;30.75;28.70;;;;;;;3.08;62.75;102990.34;5028789;28;20427;-75
2024/01/08 04:10:36;;;;;;;28.58;26.88;;;;;;;3.09;62.47;102986.69;5032840;28;20033;-75
2024/01/08 04:13:01;;;;;;;29.45;27.75;;;;;;;3.08;62.69;102980.50;5031648;28;20041;-74
2024/01/08 04:15:26;;;;;;;29.67;27.75;;;;;;;3.08;62.81;102985.84;5030903;28;20033;-76
2024/01/08 04:17:52;;;;;;;29.30;27.70;;;;;;;3.08;62.75;102983.16;5030979;28;20044;-74
2024/01/08 04:20:17;;;;;;;28.90;27.40;;;;;;;3.09;62.68;102992.03;5014246;28;20041;-75
2024/01/08 04:22:44;;;;;;;29.10;27.10;;;;;;;3.08;62.63;102991.19;5017721;28;20042;-75
2024/01/08 04:25:09;;;;;;;27.17;25.77;;;;;;;3.08;62.77;102983.16;5025939;28;20057;-74
2024/01/08 04:27:35;;;;;;;29.80;28.10;;;;;;;3.08;62.49;102980.50;5005442;28;20493;-74
2024/01/08 04:30:01;;;;;;;29.15;27.63;;;;;;;3.08;62.61;102985.84;5041433;28;20051;-74
2024/01/08 04:32:26;;;;;;;31.40;29.60;;;;;;;3.09;62.59;102984.00;5031598;28;20402;-75
2024/01/08 04:34:52;;;;;;;30.52;29.02;;;;;;;3.09;62.77;102986.69;5019491;28;20036;-74
2024/01/08 04:37:17;;;;;;;29.45;27.95;;;;;;;3.10;62.38;102991.03;5031258;28;20103;-74
2024/01/08 04:39:42;;;;;;;29.88;28.33;;;;;;;3.10;62.72;102994.56;5032930;28;20080;-75
2024/01/08 04:42:08;;;;;;;28.42;26.92;;;;;;;3.10;62.55;102985.69;5024686;28;20100;-74
2024/01/08 04:44:33;;;;;;;29.67;27.98;;;;;;;3.10;62.23;102983.00;5038369;28;20025;-75
2024/01/08 04:46:58;;;;;;;29.20;27.70;;;;;;;3.09;62.68;102986.69;5033524;28;20034;-74
2024/01/08 04:49:24;;;;;;;32.17;30.48;;;;;;;3.08;62.53;102990.34;5023925;28;20075;-75
2024/01/08 04:51:50;;;;;;;29.48;27.98;;;;;;;3.08;62.78;102993.00;5013589;28;20033;-74
2024/01/08 04:54:16;;;;;;;30.52;28.90;;;;;;;3.08;62.60;102987.69;5014102;28;20037;-75
2024/01/08 04:56:41;;;;;;;30.45;28.80;;;;;;;3.09;62.78;102986.69;5011857;28;20038;-74
2024/01/08 04:59:07;;;;;;;26.13;24.83;;;;;;;3.10;62.59;102986.56;5015064;28;20092;-75
2024/01/08 05:01:37;;;;;;;30.80;29.02;;;;;;;3.08;62.52;102972.50;5029804;28;20112;-75
2024/01/08 05:04:03;;;;;;;26.30;24.98;;;;;;;3.08;62.58;102977.84;5021437;28;20504;-75
2024/01/08 05:06:29;;;;;;;29.42;27.42;;;;;;;3.08;62.48;102968.97;5018237;28;20103;-75
2024/01/08 05:08:54;;;;;;;28.08;26.50;;;;;;;3.09;62.76;102981.34;5030938;28;20462;-74
2024/01/08 05:11:19;;;;;;;27.65;26.13;;;;;;;3.07;62.67;102968.13;5014968;28;20125;-75
2024/01/08 05:13:45;;;;;;;29.58;27.92;;;;;;;3.08;62.43;102968.97;5030587;28;20059;-75
2024/01/08 05:16:10;;;;;;;29.92;28.33;;;;;;;3.06;62.56;102968.28;5032003;28;20052;-75
2024/01/08 05:18:36;;;;;;;29.35;27.65;;;;;;;3.05;62.60;102962.09;5050659;28;20071;-78
2024/01/08 05:21:03;;;;;;;28.80;27.35;;;;;;;3.04;62.14;102969.22;5041758;28;20091;-75
2024/01/08 05:23:29;;;;;;;28.00;26.45;;;;;;;3.03;62.46;102975.56;5021904;28;20026;-74
2024/01/08 05:25:59;;;;;;;32.60;30.67;;;;;;;3.02;61.88;102973.03;5026759;28;20036;-75
2024/01/08 05:28:28;;;;;;;29.75;27.75;;;;;;;2.99;61.83;102967.97;5014112;28;20050;-75
2024/01/08 05:30:54;;;;;;;29.35;27.75;;;;;;;2.97;62.21;102967.25;5040838;28;20119;-75
2024/01/08 05:33:20;;;;;;;30.08;28.42;;;;;;;2.94;61.78;102975.56;5026589;28;20478;-75
2024/01/08 05:35:45;;;;;;;32.95;30.77;;;;;;;2.91;62.23;102974.00;5038506;28;20021;-74
2024/01/08 05:38:11;;;;;;;29.73;28.23;;;;;;;2.90;61.99;102968.78;5018259;28;20366;-75
2024/01/08 05:40:36;;;;;;;28.50;26.60;;;;;;;2.87;61.62;102967.22;5041337;28;20389;-75
2024/01/08 05:43:03;;;;;;;27.90;25.95;;;;;;;2.85;62.23;102966.56;5031473;28;20029;-75
2024/01/08 05:45:29;;;;;;;29.17;27.63;;;;;;;2.85;61.80;102971.03;5020321;28;20057;-76
2024/01/08 05:47:55;;;;;;;30.67;28.95;;;;;;;2.83;61.62;102965.84;5014545;28;20451;-75
2024/01/08 05:50:26;;;;;;;26.90;25.20;;;;;;;2.81;61.67;102965.97;5037950;28;20029;-76
2024/01/08 05:52:53;;;;;;;28.58;27.08;;;;;;;2.80;61.95;102974.97;5032711;28;20517;-75
2024/01/08 05:55:18;;;;;;;27.83;26.38;;;;;;;2.81;61.99;102975.81;5022557;28;20030;-75
2024/01/08 05:57:44;;;;;;;28.95;26.95;;;;;;;2.80;61.99;102974.13;5030016;28;20413;-76
2024/01/08 06:00:10;;;;;;;31.15;29.35;;;;;;;2.80;62.20;102968.78;5030046;28;20053;-74
2024/01/08 06:02:35;;;;;;;31.75;29.58;;;;;;;2.80;62.23;102972.28;5022409;28;20040;-75
2024/01/08 06:05:01;;;;;;;26.38;24.83;;;;;;;2.78;62.49;102971.59;5045108;28;20104;-74
2024/01/08 06:07:26;;;;;;;31.92;29.88;;;;;;;2.78;62.08;102976.91;5021662;28;20044;-75
2024/01/08 06:09:51;;;;;;;29.33;27.63;;;;;;;2.78;61.93;102974.25;5015801;28;20041;-74
2024/01/08 06:12:17;;;;;;;27.95;26.27;;;;;;;2.77;61.94;102971.69;5025568;28;20130;-75
2024/01/08 06:14:42;;;;;;;32.70;30.63;;;;;;;2.74;61.91;102969.31;5029966;28;20033;-75
2024/01/08 06:17:09;;;;;;;28.80;27.38;;;;;;;2.75;62.50;102971.03;5030362;28;20038;-76
2024/01/08 06:19:35;;;;;;;28.92;27.10;;;;;;;2.76;63.16;102972.69;5030819;28;20029;-75
2024/01/08 06:22:00;;;;;;;30.63;28.98;;;;;;;2.78;62.77;102968.06;5027937;28;20485;-76
2024/01/08 06:24:25;;;;;;;33.50;31.50;;;;;;;2.77;62.77;102967.22;5018447;28;20030;-75
2024/01/08 06:26:51;;;;;;;28.13;26.63;;;;;;;2.81;62.42;102967.78;5010054;28;20143;-75
2024/01/08 06:29:16;;;;;;;27.58;26.10;;;;;;;2.81;62.71;102979.31;5023069;28;20048;-75
2024/01/08 06:31:42;;;;;;;31.38;29.58;;;;;;;2.83;62.31;102981.84;4978500;28;20029;-75
2024/01/08 06:34:08;;;;;;;29.10;27.23;;;;;;;2.84;62.71;102980.03;5031282;28;20042;-75
2024/01/08 06:36:34;;;;;;;31.92;30.33;;;;;;;2.80;62.79;102969.63;5029297;28;20018;-76
2024/01/08 06:39:00;;;;;;;29.85;28.17;;;;;;;2.81;62.53;102962.44;5015789;28;20041;-75
2024/01/08 06:41:26;;;;;;;28.70;27.15;;;;;;;2.79;62.82;102969.75;5035595;28;20113;-75
2024/01/08 06:43:51;;;;;;;28.48;26.67;;;;;;;2.80;62.73;102966.13;5032071;28;20041;-75
2024/01/08 06:46:17;;;;;;;31.90;30.20;;;;;;;2.81;62.89;102963.28;5039545;28;20037;-75
2024/01/08 06:48:43;;;;;;;26.80;25.25;;;;;;;2.85;62.66;102968.34;5022257;28;20029;-75
2024/01/08 06:51:08;;;;;;;28.90;27.30;;;;;;;2.86;62.95;102970.91;5017541;28;20030;-75
2024/01/08 06:53:34;;;;;;;27.10;25.75;;;;;;;2.87;62.93;102967.22;5025078;28;20034;-74
2024/01/08 06:55:59;;;;;;;26.75;25.38;;;;;;;2.90;62.73;102966.13;5036085;28;20580;-75
2024/01/08 06:58:25;;;;;;;30.90;29.20;;;;;;;2.88;62.73;102971.59;5020764;28;20036;-75
2024/01/08 07:00:50;;;;;;;31.65;29.73;;;;;;;2.89;63.09;102975.13;5032862;28;20034;-76
2024/01/08 07:03:17;;;;;;;32.88;30.67;;;;;;;2.89;63.19;102973.28;5032541;28;20134;-76
2024/01/08 07:05:42;;;;;;;29.92;28.33;;;;;;;2.90;62.64;102966.13;5038681;28;20052;-75
2024/01/08 07:08:08;;;;;;;33.05;30.85;;;;;;;2.88;62.74;102971.59;5031729;28;20465;-75
2024/01/08 07:10:36;;;;;;;31.48;29.48;;;;;;;2.89;62.94;102980.47;5002612;28;20049;-74
2024/01/08 07:13:01;;;;;;;28.75;27.25;;;;;;;2.89;62.89;102975.13;5020695;28;20033;-73
2024/01/08 07:15:39;;;;;;;29.65;27.95;;;;;;;2.89;63.00;102975.94;5029835;28;20083;-74
2024/01/08 07:18:06;;;;;;;29.33;27.57;;;;;;;2.88;62.96;102976.94;5029746;28;20059;-75
2024/01/08 07:20:31;;;;;;;31.27;29.30;;;;;;;2.88;62.99;102984.13;5033723;28;20292;-75
2024/01/08 07:22:56;;;;;;;31.65;29.90;;;;;;;2.88;62.72;102976.94;5027630;28;20454;-77
2024/01/08 07:25:22;;;;;;;29.42;27.42;;;;;;;2.87;62.74;102983.25;5035256;28;20026;-75
2024/01/08 07:27:47;;;;;;;30.73;28.88;;;;;;;2.87;62.83;102987.75;5032735;28;20080;-74
2024/01/08 07:30:13;;;;;;;30.50;28.85;;;;;;;2.85;62.74;102987.91;5030262;28;20308;-74
2024/01/08 07:32:38;;;;;;;28.25;26.73;;;;;;;2.86;62.93;102988.75;5027791;28;20542;-77
2024/01/08 07:35:04;;;;;;;29.33;27.63;;;;;;;2.84;62.74;102980.84;5012403;28;20057;-75
2024/01/08 07:37:30;;;;;;;26.13;24.80;;;;;;;2.81;62.66;102983.81;5023017;28;20420;-75
2024/01/08 07:39:55;;;;;;;33.55;31.23;;;;;;;2.80;62.72;102982.97;5014048;28;20055;-75
2024/01/08 07:42:21;;;;;;;30.77;29.00;;;;;;;2.79;62.62;102991.09;5029867;28;20033;-76
2024/01/08 07:44:46;;;;;;;30.42;28.58;;;;;;;2.77;62.42;102993.94;5015510;28;20671;-75
2024/01/08 07:47:11;;;;;;;26.88;25.48;;;;;;;2.77;62.85;102993.94;5003699;28;20034;-75
2024/01/08 07:49:37;;;;;;;33.17;31.15;;;;;;;2.77;62.93;102999.25;5021705;28;20038;-75
2024/01/08 07:52:02;;;;;;;27.58;25.80;;;;;;;2.77;62.81;103001.94;5022722;28;20033;-75
2024/01/08 07:54:28;;;;;;;28.13;26.45;;;;;;;2.78;62.99;103000.09;5028548;28;20465;-75
2024/01/08 07:56:53;;;;;;;30.42;28.50;;;;;;;2.79;63.00;103004.44;5024573;28;20116;-74
2024/01/08 07:59:19;;;;;;;30.55;28.85;;;;;;;2.78;62.95;103005.44;5028654;28;20067;-76
2024/01/08 08:01:44;;;;;;;29.33;27.40;;;;;;;2.78;63.11;103010.78;5024294;28;20052;-74
2024/01/08 08:04:09;;;;;;;28.75;27.23;;;;;;;2.77;62.79;103009.94;5029676;28;20030;-75
2024/01/08 08:06:35;;;;;;;31.80;29.80;;;;;;;2.78;62.82;103010.78;5009752;28;20117;-74
2024/01/08 08:09:01;;;;;;;34.22;32.00;;;;;;;2.78;62.85;103011.63;5010590;28;20061;-74
2024/01/08 08:11:27;;;;;;;30.45;28.65;;;;;;;2.77;62.65;103015.28;5026525;28;20053;-74
2024/01/08 08:13:53;;;;;;;33.65;31.13;;;;;;;2.76;62.89;103012.72;5013883;28;20454;-74
2024/01/08 08:16:18;;;;;;;30.52;28.65;;;;;;;2.74;62.75;103015.53;5027647;28;20037;-75
2024/01/08 08:18:45;;;;;;;33.03;31.10;;;;;;;2.71;62.72;103017.63;5026601;28;20095;-75
2024/01/08 08:21:10;;;;;;;33.35;31.45;;;;;;;2.69;62.40;103019.59;5022079;28;20936;-75
2024/01/08 08:23:36;;;;;;;30.42;28.75;;;;;;;2.67;62.85;103014.41;5027833;28;20105;-74
2024/01/08 08:26:02;;;;;;;27.73;26.20;;;;;;;2.67;62.65;103013.53;5024340;28;20537;-83
2024/01/08 08:28:29;;;;;;;27.27;25.42;;;;;;;2.67;63.18;103014.41;5008241;28;20073;-77
2024/01/08 08:30:54;;;;;;;32.13;30.00;;;;;;;2.69;63.33;103020.41;5026294;28;20426;-75
2024/01/08 08:33:20;;;;;;;29.65;27.88;;;;;;;2.68;63.08;103024.06;5029492;28;20044;-74
2024/01/08 08:35:45;;;;;;;36.08;33.63;;;;;;;2.67;63.00;103022.41;5027037;28;20037;-77
2024/01/08 08:38:11;;;;;;;30.45;28.63;;;;;;;2.68;63.09;103017.91;5026441;28;20045;-76
2024/01/08 08:40:36;;;;;;;30.70;28.92;;;;;;;2.65;63.23;103013.69;5025877;28;20061;-76
2024/01/08 08:43:02;;;;;;;34.20;31.48;;;;;;;2.67;63.21;103026.88;5011099;28;20379;-76
2024/01/08 08:45:28;;;;;;;32.13;29.73;;;;;;;2.68;63.50;103025.91;5025122;28;20063;-75
2024/01/08 08:47:53;;;;;;;33.92;31.63;;;;;;;2.70;63.73;103023.97;5022768;28;20545;-77
2024/01/08 08:50:19;;;;;;;29.45;27.63;;;;;;;2.71;63.20;103028.31;5024830;28;20033;-75
2024/01/08 08:52:45;;;;;;;31.52;29.52;;;;;;;2.73;63.58;103024.53;5030555;28;20092;-77
2024/01/08 08:55:12;;;;;;;28.77;27.17;;;;;;;2.73;63.33;103023.69;5025027;28;20633;-76
2024/01/08 08:57:37;;;;;;;30.48;28.33;;;;;;;2.73;63.33;103023.69;5028446;28;20045;-76
2024/01/08 09:00:04;;;;;;;31.52;27.42;;;;;;;2.73;63.21;103034.34;5026478;28;20445;-75
2024/01/08 09:02:29;;;;;;;30.60;28.67;;;;;;;2.73;63.24;103029.03;5004394;28;20038;-74
2024/01/08 09:04:54;;;;;;;31.77;29.50;;;;;;;2.71;63.01;103025.63;5027510;28;20038;-76
2024/01/08 09:07:23;;;;;;;33.03;31.05;;;;;;;2.72;62.64;103030.84;5028524;28;20033;-74
2024/01/08 09:09:49;;;;;;;26.67;24.88;;;;;;;2.72;63.01;103029.97;5028647;28;20041;-74
2024/01/08 09:12:15;;;;;;;29.77;28.08;;;;;;;2.72;63.18;103029.97;5011879;28;20032;-75
2024/01/08 09:14:41;;;;;;;29.55;27.80;;;;;;;2.72;62.77;103040.66;5027619;28;20030;-75
2024/01/08 09:17:07;;;;;;;32.88;30.63;;;;;;;2.71;62.84;103039.81;5027102;28;20456;-75
2024/01/08 09:19:34;;;;;;;32.42;30.42;;;;;;;2.70;63.41;103035.47;5025188;28;20398;-74
2024/01/08 09:22:00;;;;;;;33.38;31.42;;;;;;;2.71;63.34;103041.66;5028680;28;20223;-75
2024/01/08 09:24:25;;;;;;;30.77;28.98;;;;;;;2.69;63.02;103041.78;5029267;28;20108;-75
2024/01/08 09:26:50;;;;;;;35.38;33.22;;;;;;;2.69;63.13;103043.59;5010301;28;20414;-75
2024/01/08 09:29:16;;;;;;;28.58;26.98;;;;;;;2.66;63.06;103044.72;5027956;28;20052;-75
2024/01/08 09:31:41;;;;;;;27.05;25.35;;;;;;;2.67;62.99;103045.56;5011775;28;20033;-74
2024/01/08 09:34:07;;;;;;;31.65;29.55;;;;;;;2.67;63.25;103046.41;5028989;28;20099;-75
2024/01/08 09:36:32;;;;;;;33.15;31.13;;;;;;;2.66;62.90;103043.88;5027525;28;20052;-74
2024/01/08 09:38:57;;;;;;;36.85;34.38;;;;;;;2.66;62.84;103051.88;5011057;28;20439;-75
2024/01/08 09:41:23;;;;;;;29.02;27.35;;;;;;;2.64;63.18;103057.34;5027378;28;20493;-74
2024/01/08 09:43:50;;;;;;;29.70;27.92;;;;;;;2.63;62.93;103049.47;5026683;28;20041;-75
2024/01/08 09:46:25;;;;;;;30.48;28.80;;;;;;;2.64;62.92;103060.00;5026328;28;20095;-76
2024/01/08 09:48:52;;;;;;;29.33;27.83;;;;;;;2.66;62.98;103060.72;5025475;28;20022;-77
2024/01/08 09:51:18;;;;;;;26.00;24.52;;;;;;;2.68;63.24;103058.78;5026287;28;20034;-75
2024/01/08 09:53:44;;;;;;;30.90;28.65;;;;;;;2.69;63.16;103062.28;5025372;28;20056;-76
2024/01/08 09:56:13;;;;;;;36.53;33.95;;;;;;;2.69;63.00;103070.28;5008839;28;20057;-74
2024/01/08 09:58:39;;;;;;;28.88;27.27;;;;;;;2.67;62.82;103066.91;5027242;28;20082;-74
2024/01/08 10:01:04;;;;;;;29.77;28.08;;;;;;;2.65;63.30;103059.03;5025725;28;20026;-74
2024/01/08 10:03:30;;;;;;;29.23;27.67;;;;;;;2.67;63.33;103061.56;5028672;28;20489;-75
2024/01/08 10:05:56;;;;;;;28.65;26.92;;;;;;;2.68;63.14;103065.94;5025543;28;20029;-74
2024/01/08 10:08:21;;;;;;;29.33;27.70;;;;;;;2.67;63.35;103066.91;5027473;28;20025;-75
2024/01/08 10:10:47;;;;;;;31.30;29.50;;;;;;;2.68;63.25;103065.94;5025567;28;20032;-74
2024/01/08 10:13:12;;;;;;;29.27;27.65;;;;;;;2.67;63.49;103066.91;5024902;28;20024;-75
2024/01/08 10:15:38;;;;;;;27.20;25.60;;;;;;;2.68;63.31;103065.94;5028676;28;20426;-75
2024/01/08 10:18:08;;;;;;;32.25;29.88;;;;;;;2.69;63.37;103054.28;5009256;28;20036;-75
2024/01/08 10:20:34;;;;;;;32.28;30.23;;;;;;;2.68;63.46;103056.09;5022553;28;20041;-73
2024/01/08 10:23:09;;;;;;;33.15;30.98;;;;;;;2.68;63.34;103052.59;5025308;28;20037;-75
2024/01/08 10:25:38;;;;;;;29.42;27.73;;;;;;;2.67;63.26;103051.75;5027142;28;20036;-75
2024/01/08 10:28:10;;;;;;;32.53;30.58;;;;;;;2.70;63.24;103047.97;5040597;28;20057;-76
2024/01/08 10:30:36;;;;;;;28.80;27.23;;;;;;;2.68;63.15;103042.75;5023161;28;20076;-77
2024/01/08 10:33:03;;;;;;;30.40;28.42;;;;;;;2.66;63.26;103047.38;5027971;28;20033;-76
2024/01/08 10:35:31;;;;;;;29.58;27.88;;;;;;;2.66;63.34;103046.53;5026860;28;20540;-75
2024/01/08 10:37:58;;;;;;;28.90;27.40;;;;;;;2.67;63.26;103038.41;5022696;28;20050;-76
2024/01/08 10:40:25;;;;;;;29.88;27.77;;;;;;;2.68;63.26;103041.91;5028059;28;20041;-76
2024/01/08 10:42:51;;;;;;;32.35;30.23;;;;;;;2.66;63.40;103038.53;5025484;28;20030;-75
2024/01/08 10:45:16;;;;;;;35.92;33.58;;;;;;;2.65;62.96;103036.84;5027296;28;20766;-74
2024/01/08 10:47:50;;;;;;;31.75;29.63;;;;;;;2.61;62.77;103025.59;5026319;28;20044;-75
2024/01/08 10:50:19;;;;;;;31.92;29.67;;;;;;;2.56;62.09;103026.00;5025594;28;20120;-74
2024/01/08 10:52:52;;;;;;;29.27;27.48;;;;;;;2.51;61.79;103038.03;5026931;28;20037;-75
2024/01/08 10:55:20;;;;;;;27.90;26.33;;;;;;;2.46;61.92;103038.44;5028168;28;20505;-74
2024/01/08 10:57:59;;;;;;;32.63;30.47;;;;;;;2.44;62.10;103037.72;5021589;28;20042;-76
2024/01/08 11:00:27;;;;;;;30.90;28.88;;;;;;;2.42;61.74;103031.69;5027279;28;20307;-74
2024/01/08 11:02:53;;;;;;;28.75;27.25;;;;;;;2.41;61.64;103035.31;5027440;28;20581;-75
2024/01/08 11:05:22;;;;;;;33.70;31.48;;;;;;;2.41;61.84;103024.66;5027777;28;20170;-74
2024/01/08 11:07:50;;;;;;;29.63;28.00;;;;;;;2.41;61.88;103027.31;5026204;28;20529;-75
2024/01/08 11:10:16;;;;;;;28.27;26.67;;;;;;;2.43;61.73;103024.53;5024146;28;20040;-74